Time;durP1;ratioP1;P1;durP2;ratioP2;P2;SDS_P1;SDS_P2;PMS_P1;PMS_P2;Temp;Humidity;BMP_temperature;BMP_pressure;BME280_temperature;BME280_humidity;BME280_pressure;Samples;Min_cycle;Max_cycle;Signal;HPM_P1;HPM_P2
2022/06/27 00:02:11;;;;;;;16.53;14.77;;;;;;;18.16;92.66;100172.44;5118595;28;20531;-65
2022/06/27 00:04:38;;;;;;;15.53;13.97;;;;;;;18.24;93.14;100160.66;5118850;28;20446;-64
2022/06/27 00:07:05;;;;;;;15.87;14.37;;;;;;;18.29;92.85;100158.22;5118548;28;20524;-64
2022/06/27 00:09:32;;;;;;;16.43;14.63;;;;;;;18.36;92.89;100167.22;5118802;28;20439;-65
2022/06/27 00:11:59;;;;;;;16.30;14.40;;;;;;;18.38;92.92;100170.59;5108171;28;20473;-64
2022/06/27 00:14:28;;;;;;;17.77;14.30;;;;;;;18.38;92.72;100169.75;5119014;28;20445;-64
2022/06/27 00:16:55;;;;;;;16.83;14.90;;;;;;;18.40;92.35;100160.41;5107668;28;20523;-63
2022/06/27 00:19:22;;;;;;;15.60;13.90;;;;;;;18.54;91.92;100171.34;5119217;28;20467;-64
2022/06/27 00:21:48;;;;;;;14.70;13.30;;;;;;;18.63;90.25;100189.16;5122933;28;20508;-64
2022/06/27 00:24:16;;;;;;;15.60;14.00;;;;;;;18.52;90.63;100173.41;5122453;28;20990;-64
2022/06/27 00:26:42;;;;;;;17.23;15.40;;;;;;;18.37;91.33;100181.63;5122180;28;20480;-64
2022/06/27 00:29:09;;;;;;;17.30;15.60;;;;;;;18.28;92.39;100204.41;5123294;28;20438;-64
2022/06/27 00:31:37;;;;;;;15.73;14.27;;;;;;;18.30;92.09;100202.34;5122244;28;20507;-68
2022/06/27 00:34:04;;;;;;;16.60;14.90;;;;;;;18.13;92.20;100193.66;5123246;28;20492;-67
2022/06/27 00:36:30;;;;;;;15.63;14.00;;;;;;;18.24;91.97;100182.31;5122871;28;20473;-67
2022/06/27 00:38:57;;;;;;;17.93;15.83;;;;;;;18.31;91.66;100188.63;5122689;28;20450;-66
2022/06/27 00:41:24;;;;;;;18.67;16.27;;;;;;;18.32;92.02;100197.59;5121399;28;20477;-65
2022/06/27 00:43:51;;;;;;;20.33;16.60;;;;;;;18.15;92.50;100207.81;5122604;28;20569;-66
2022/06/27 00:46:17;;;;;;;17.47;15.60;;;;;;;18.38;89.98;100224.72;5119685;28;20513;-67
2022/06/27 00:48:45;;;;;;;14.60;13.17;;;;;;;18.35;90.03;100218.84;5121760;28;20476;-66
2022/06/27 00:51:12;;;;;;;15.97;14.33;;;;;;;18.34;90.42;100222.59;5121067;28;20473;-66
2022/06/27 00:53:39;;;;;;;15.83;14.23;;;;;;;18.33;90.53;100221.75;5122024;28;20529;-67
2022/06/27 00:56:06;;;;;;;17.03;15.33;;;;;;;18.35;91.17;100211.56;5121371;28;20482;-66
2022/06/27 00:58:33;;;;;;;17.40;15.67;;;;;;;18.33;90.99;100213.66;5122251;28;20468;-66
2022/06/27 01:00:59;;;;;;;17.50;14.90;;;;;;;18.23;91.01;100208.53;5120732;28;20509;-67
2022/06/27 01:03:26;;;;;;;17.93;16.00;;;;;;;18.27;91.00;100210.88;5122428;28;20489;-67
2022/06/27 01:05:54;;;;;;;21.00;16.73;;;;;;;18.22;90.92;100214.13;5121371;28;20482;-67
2022/06/27 01:08:25;;;;;;;16.87;15.07;;;;;;;18.25;90.94;100214.59;5121420;28;20450;-67
2022/06/27 01:10:52;;;;;;;16.50;14.90;;;;;;;18.27;90.76;100216.28;5121188;28;20508;-67
2022/06/27 01:13:18;;;;;;;22.20;15.97;;;;;;;18.00;91.43;100229.47;5121106;28;20955;-67
2022/06/27 01:15:46;;;;;;;17.30;15.57;;;;;;;18.35;90.00;100249.47;5120176;28;20462;-67
2022/06/27 01:18:13;;;;;;;18.00;15.60;;;;;;;18.26;90.06;100247.88;5122469;28;20483;-67
2022/06/27 01:20:42;;;;;;;16.00;14.30;;;;;;;18.24;90.11;100261.63;5120311;28;20539;-67
2022/06/27 01:23:10;;;;;;;16.80;15.10;;;;;;;18.19;90.41;100265.91;5101274;28;20514;-67
2022/06/27 01:25:37;;;;;;;16.60;14.90;;;;;;;18.43;89.68;100267.44;5121194;28;20497;-67
2022/06/27 01:28:04;;;;;;;16.97;15.03;;;;;;;18.33;90.39;100270.47;5121836;28;20507;-67
2022/06/27 01:30:31;;;;;;;17.40;15.37;;;;;;;18.39;90.21;100277.81;5120035;28;20462;-67
2022/06/27 01:32:58;;;;;;;17.83;15.27;;;;;;;18.51;90.23;100272.75;5120697;28;20450;-66
2022/06/27 01:35:24;;;;;;;20.93;16.90;;;;;;;18.56;90.23;100270.31;5120203;28;20991;-66
2022/06/27 01:37:51;;;;;;;19.43;17.23;;;;;;;18.49;90.32;100272.09;5120935;28;20469;-66
2022/06/27 01:40:19;;;;;;;19.90;16.30;;;;;;;18.47;90.49;100260.63;5120894;28;20434;-67
2022/06/27 01:42:46;;;;;;;20.60;16.73;;;;;;;18.57;90.27;100260.31;5120397;28;20458;-66
2022/06/27 01:45:12;;;;;;;20.90;17.90;;;;;;;18.65;89.96;100245.81;5120024;28;20758;-67
2022/06/27 01:47:39;;;;;;;26.53;19.23;;;;;;;18.69;89.71;100238.97;5120990;28;20442;-66
2022/06/27 01:50:06;;;;;;;19.90;17.00;;;;;;;18.60;89.93;100249.09;5120614;28;20528;-66
2022/06/27 01:52:34;;;;;;;20.77;17.33;;;;;;;18.57;90.48;100252.19;5119442;28;20500;-66
2022/06/27 01:55:00;;;;;;;20.43;17.00;;;;;;;18.36;91.56;100261.13;5121281;28;20485;-66
2022/06/27 01:57:28;;;;;;;20.60;18.47;;;;;;;18.44;91.58;100244.78;5119959;28;20527;-66
2022/06/27 01:59:55;;;;;;;20.60;16.90;;;;;;;18.57;90.86;100246.75;5120599;28;20471;-66
2022/06/27 02:02:22;;;;;;;19.10;17.03;;;;;;;18.51;91.44;100255.69;5120438;28;20500;-66
2022/06/27 02:04:49;;;;;;;18.80;16.83;;;;;;;18.60;91.27;100225.56;5120805;28;20481;-66
2022/06/27 02:07:17;;;;;;;22.10;17.30;;;;;;;18.64;91.29;100244.97;5119690;28;20470;-66
2022/06/27 02:09:45;;;;;;;20.80;18.50;;;;;;;18.67;91.38;100232.91;5120836;28;20480;-66
2022/06/27 02:12:22;;;;;;;21.03;18.83;;;;;;;18.58;91.13;100233.03;5120487;28;20514;-66
2022/06/27 02:14:52;;;;;;;20.33;18.20;;;;;;;18.60;91.60;100211.19;5119569;28;20738;-66
2022/06/27 02:17:19;;;;;;;23.93;18.30;;;;;;;18.70;91.20;100216.28;5119842;28;20557;-67
2022/06/27 02:19:46;;;;;;;22.00;19.80;;;;;;;18.72;90.95;100211.50;5120634;28;20430;-67
2022/06/27 02:22:13;;;;;;;22.37;19.13;;;;;;;18.72;91.30;100219.63;5119020;28;20582;-67
2022/06/27 02:24:40;;;;;;;21.33;19.13;;;;;;;18.74;91.18;100218.38;5120945;28;20537;-67
2022/06/27 02:27:08;;;;;;;20.80;18.60;;;;;;;18.72;90.75;100215.03;5119159;28;20530;-68
2022/06/27 02:29:35;;;;;;;22.33;20.03;;;;;;;18.54;91.54;100222.78;5120070;28;21046;-67
2022/06/27 02:32:03;;;;;;;25.47;20.20;;;;;;;18.55;91.42;100213.63;5120171;28;20969;-67
2022/06/27 02:34:30;;;;;;;21.57;19.30;;;;;;;18.61;91.09;100212.88;5120212;28;20473;-65
2022/06/27 02:36:57;;;;;;;21.57;18.63;;;;;;;18.68;91.03;100204.78;5119310;28;20516;-66
2022/06/27 02:39:26;;;;;;;23.53;20.40;;;;;;;18.51;91.26;100188.00;5120899;28;20458;-64
2022/06/27 02:41:54;;;;;;;23.50;21.00;;;;;;;18.71;91.12;100170.03;5119273;28;20498;-64
2022/06/27 02:44:22;;;;;;;23.63;19.60;;;;;;;18.74;90.77;100164.22;5119081;28;20481;-64
2022/06/27 02:46:51;;;;;;;21.00;18.90;;;;;;;18.75;90.50;100168.63;5118998;28;20503;-65
2022/06/27 02:49:19;;;;;;;22.47;19.20;;;;;;;18.63;90.79;100165.59;5120334;28;20474;-64
2022/06/27 02:51:53;;;;;;;21.80;19.53;;;;;;;18.47;91.17;100151.50;5118941;28;20566;-66
2022/06/27 02:54:21;;;;;;;20.03;17.43;;;;;;;18.57;91.14;100141.16;5120326;28;20442;-65
2022/06/27 02:56:52;;;;;;;21.40;19.13;;;;;;;18.65;90.79;100132.09;5118765;28;20542;-66
2022/06/27 02:59:23;;;;;;;20.83;18.73;;;;;;;18.61;90.51;100126.22;5120318;28;20458;-66
2022/06/27 03:01:50;;;;;;;20.93;18.77;;;;;;;18.52;90.64;100133.66;5119144;28;20561;-66
2022/06/27 03:04:18;;;;;;;21.20;18.00;;;;;;;18.47;90.48;100138.81;5120230;28;20561;-67
2022/06/27 03:06:46;;;;;;;24.80;18.73;;;;;;;18.40;91.29;100140.59;5119259;28;20999;-68
2022/06/27 03:09:13;;;;;;;21.53;19.33;;;;;;;18.40;91.72;100130.63;5120450;28;20468;-68
2022/06/27 03:11:39;;;;;;;19.50;17.50;;;;;;;18.46;91.31;100137.13;5119287;28;20466;-68
2022/06/27 03:14:06;;;;;;;20.23;17.73;;;;;;;18.56;91.03;100134.94;5119406;28;20474;-68
2022/06/27 03:16:34;;;;;;;19.70;17.60;;;;;;;18.58;90.22;100116.63;5119257;28;20470;-69
2022/06/27 03:19:01;;;;;;;18.77;16.80;;;;;;;18.56;90.54;100101.59;5120037;28;20474;-69
2022/06/27 03:21:29;;;;;;;18.63;16.27;;;;;;;18.62;90.28;100081.84;5118374;28;20470;-68
2022/06/27 03:23:56;;;;;;;20.30;17.40;;;;;;;18.58;90.87;100065.16;5119787;28;20511;-68
2022/06/27 03:26:22;;;;;;;20.47;18.37;;;;;;;18.63;90.49;100070.81;5118509;28;20493;-68
2022/06/27 03:28:49;;;;;;;21.57;19.37;;;;;;;18.63;90.89;100053.75;5119332;28;20939;-68
2022/06/27 03:31:16;;;;;;;22.23;19.90;;;;;;;18.56;90.69;100051.00;5118830;28;20470;-67
2022/06/27 03:33:43;;;;;;;23.43;18.97;;;;;;;18.56;90.99;100036.63;5119530;28;20958;-68
2022/06/27 03:36:10;;;;;;;24.10;19.53;;;;;;;18.67;90.45;100027.94;5118077;28;20550;-68
2022/06/27 03:38:38;;;;;;;21.37;19.30;;;;;;;18.57;89.73;100025.56;5120435;28;20442;-67
2022/06/27 03:41:05;;;;;;;22.80;20.50;;;;;;;18.53;89.53;100007.25;5118335;28;21021;-67
2022/06/27 03:43:32;;;;;;;25.10;20.23;;;;;;;18.47;90.07;100016.13;5118699;28;20528;-66
2022/06/27 03:45:59;;;;;;;22.47;20.07;;;;;;;18.41;90.10;100034.84;5118144;28;20734;-67
2022/06/27 03:51:11;;;;;;;22.03;19.23;;;;;;;18.47;89.22;100041.38;5117102;28;20553;-67
2022/06/27 03:53:39;;;;;;;24.90;21.87;;;;;;;18.43;89.40;100032.78;5119930;28;20959;-67
2022/06/27 03:56:06;;;;;;;22.97;20.53;;;;;;;18.50;89.42;100027.41;5118691;28;20480;-67
2022/06/27 03:58:33;;;;;;;26.87;22.53;;;;;;;18.49;89.47;100044.72;5118659;28;20446;-67
2022/06/27 04:01:01;;;;;;;24.23;21.70;;;;;;;18.52;89.71;100052.44;5118650;28;20531;-67
2022/06/27 04:03:27;;;;;;;26.07;23.20;;;;;;;18.46;89.72;100058.63;5119392;28;20476;-67
2022/06/27 04:05:54;;;;;;;30.10;23.07;;;;;;;18.38;89.92;100064.19;5118330;28;20474;-67
2022/06/27 04:08:22;;;;;;;27.87;23.73;;;;;;;18.43;89.96;100067.13;5119285;28;20458;-67
2022/06/27 04:10:50;;;;;;;25.73;22.93;;;;;;;18.20;90.28;100049.25;5118966;28;20501;-67
2022/06/27 04:13:16;;;;;;;25.70;22.30;;;;;;;18.42;90.22;100058.19;5118002;28;20962;-67
2022/06/27 04:15:43;;;;;;;25.00;20.90;;;;;;;18.59;89.18;100058.72;5118858;28;20473;-66
2022/06/27 04:18:10;;;;;;;25.73;22.30;;;;;;;18.47;89.14;100063.03;5118664;28;20438;-67
2022/06/27 04:20:36;;;;;;;27.47;22.97;;;;;;;18.38;89.56;100069.59;5117361;28;20540;-67
2022/06/27 04:23:03;;;;;;;24.93;22.10;;;;;;;18.63;88.80;100084.38;5118931;28;20438;-67
2022/06/27 04:25:30;;;;;;;28.63;23.03;;;;;;;18.64;89.05;100077.06;5116128;28;20474;-68
2022/06/27 04:27:58;;;;;;;28.10;22.93;;;;;;;18.72;89.00;100085.06;5116536;28;20468;-69
2022/06/27 04:30:25;;;;;;;27.50;24.10;;;;;;;18.77;88.76;100088.00;5118313;28;20457;-68
2022/06/27 04:32:52;;;;;;;28.80;24.80;;;;;;;18.62;88.46;100081.84;5118552;28;20454;-68
2022/06/27 04:35:19;;;;;;;30.83;24.17;;;;;;;18.55;89.25;100081.81;5116337;28;20637;-64
2022/06/27 04:37:47;;;;;;;26.60;22.10;;;;;;;18.68;89.18;100080.22;5118968;28;20453;-68
2022/06/27 04:40:15;;;;;;;25.37;22.53;;;;;;;18.76;88.89;100075.47;5118647;28;20477;-67
2022/06/27 04:42:42;;;;;;;28.60;22.57;;;;;;;18.79;88.65;100080.50;5118177;28;20472;-67
2022/06/27 04:45:12;;;;;;;23.60;21.13;;;;;;;18.81;88.57;100088.44;5118017;28;20550;-67
2022/06/27 04:47:40;;;;;;;31.50;25.80;;;;;;;18.78;88.45;100086.13;5118779;28;21002;-67
2022/06/27 04:50:09;;;;;;;27.70;23.63;;;;;;;18.96;87.97;100088.38;5116899;28;20495;-67
2022/06/27 04:52:36;;;;;;;26.60;22.10;;;;;;;18.99;87.68;100091.50;5119066;28;20760;-67
2022/06/27 04:55:07;;;;;;;24.67;21.50;;;;;;;18.97;87.44;100093.59;5118768;28;20482;-67
2022/06/27 04:57:33;;;;;;;24.50;22.00;;;;;;;19.03;87.23;100100.06;5117612;28;20484;-67
2022/06/27 05:00:01;;;;;;;28.40;24.23;;;;;;;19.03;86.90;100096.53;5119419;28;20582;-65
2022/06/27 05:02:30;;;;;;;27.50;22.90;;;;;;;19.06;87.03;100094.25;5118055;28;20500;-66
2022/06/27 05:04:56;;;;;;;27.43;22.13;;;;;;;19.06;87.11;100096.13;5117751;28;20463;-66
2022/06/27 05:07:23;;;;;;;28.60;23.67;;;;;;;19.06;86.85;100091.56;5119182;28;20462;-67
2022/06/27 05:09:52;;;;;;;27.10;22.07;;;;;;;19.03;86.68;100102.78;5120852;28;20449;-66
2022/06/27 05:12:19;;;;;;;24.70;22.20;;;;;;;18.88;87.85;100116.44;5116709;28;20466;-64
2022/06/27 05:14:46;;;;;;;28.70;24.20;;;;;;;18.91;88.16;100132.31;5121949;28;20513;-64
2022/06/27 05:17:12;;;;;;;29.40;23.57;;;;;;;18.93;87.99;100132.94;5120774;28;20504;-63
2022/06/27 05:19:41;;;;;;;24.37;21.87;;;;;;;19.04;88.17;100136.97;5119422;28;20442;-67
2022/06/27 05:22:08;;;;;;;31.57;25.10;;;;;;;19.00;87.90;100141.94;5120939;28;20509;-66
2022/06/27 05:24:35;;;;;;;30.30;23.43;;;;;;;18.95;87.87;100132.75;5120171;28;20497;-62
2022/06/27 05:27:02;;;;;;;29.83;25.27;;;;;;;18.96;87.75;100139.84;5117469;28;20561;-70
2022/06/27 05:29:28;;;;;;;33.87;26.70;;;;;;;19.10;87.63;100151.59;5121324;28;20459;-71
2022/06/27 05:31:55;;;;;;;32.00;27.53;;;;;;;19.15;87.40;100138.28;5120971;28;20480;-71
2022/06/27 05:34:23;;;;;;;31.63;26.60;;;;;;;19.07;87.64;100136.56;5120196;28;20452;-72
2022/06/27 05:36:51;;;;;;;30.50;25.43;;;;;;;19.11;87.78;100140.56;5120591;28;20470;-71
2022/06/27 05:39:17;;;;;;;37.17;26.17;;;;;;;19.06;87.92;100153.00;5121697;28;20447;-70
2022/06/27 05:41:45;;;;;;;34.00;27.70;;;;;;;19.07;88.49;100147.41;5119667;28;20470;-72
2022/06/27 05:44:13;;;;;;;33.33;26.77;;;;;;;19.07;88.36;100155.53;5121792;28;20481;-71
2022/06/27 05:46:40;;;;;;;31.90;27.60;;;;;;;19.15;87.98;100149.13;5120117;28;20484;-73
2022/06/27 05:49:08;;;;;;;35.30;28.90;;;;;;;19.10;88.49;100151.59;5120279;28;20435;-72
2022/06/27 05:51:36;;;;;;;33.10;27.57;;;;;;;19.08;88.36;100142.81;5119965;28;20470;-72
2022/06/27 05:54:05;;;;;;;30.90;26.67;;;;;;;19.14;88.42;100142.84;5121222;28;21014;-71
2022/06/27 05:56:32;;;;;;;37.00;27.20;;;;;;;19.16;88.38;100132.66;5118596;28;20474;-72
2022/06/27 05:59:01;;;;;;;28.73;25.03;;;;;;;19.19;88.28;100101.63;5121556;28;20541;-71
2022/06/27 06:01:28;;;;;;;31.30;27.20;;;;;;;19.15;88.26;100100.34;5121020;28;20470;-71
2022/06/27 06:03:56;;;;;;;35.03;27.10;;;;;;;19.19;88.29;100104.31;5120419;28;20515;-72
2022/06/27 06:06:24;;;;;;;30.90;26.87;;;;;;;19.32;88.24;100106.25;5120394;28;20461;-75
2022/06/27 06:08:51;;;;;;;32.40;26.83;;;;;;;19.42;87.56;100108.59;5119983;28;20444;-70
2022/06/27 06:11:20;;;;;;;34.10;26.70;;;;;;;19.43;87.07;100111.13;5119109;28;20474;-71
2022/06/27 06:13:46;;;;;;;29.53;26.23;;;;;;;19.42;87.16;100112.13;5120488;28;20596;-71
2022/06/27 06:16:19;;;;;;;27.73;24.40;;;;;;;19.61;86.52;100121.41;5120171;28;20474;-71
2022/06/27 06:18:47;;;;;;;26.57;23.73;;;;;;;19.70;85.98;100119.34;5119086;28;20435;-71
2022/06/27 06:21:13;;;;;;;26.87;24.00;;;;;;;19.79;85.48;100122.72;5120368;28;20840;-70
2022/06/27 06:23:40;;;;;;;24.73;21.43;;;;;;;19.75;85.55;100125.88;5120823;28;20450;-71
2022/06/27 06:26:07;;;;;;;26.47;23.17;;;;;;;19.26;88.57;100129.59;5118544;28;20874;-70
2022/06/27 06:28:36;;;;;;;25.80;22.20;;;;;;;19.02;88.81;100138.19;5119970;28;20465;-71
2022/06/27 06:31:03;;;;;;;27.20;24.20;;;;;;;19.41;86.98;100151.16;5119266;28;20466;-72
2022/06/27 06:33:30;;;;;;;26.10;21.67;;;;;;;19.51;86.74;100157.03;5119303;28;20477;-71
2022/06/27 06:35:57;;;;;;;27.63;24.73;;;;;;;19.25;86.96;100146.91;5119087;28;20473;-71
2022/06/27 06:38:24;;;;;;;31.27;25.90;;;;;;;18.81;88.70;100151.56;5120230;28;20438;-70
2022/06/27 06:40:51;;;;;;;30.30;24.10;;;;;;;18.91;89.92;100151.25;5118379;28;20487;-71
2022/06/27 06:43:17;;;;;;;31.63;24.47;;;;;;;19.03;89.32;100150.72;5119556;28;20511;-71
2022/06/27 06:45:45;;;;;;;31.97;25.73;;;;;;;19.27;88.22;100150.25;5118435;28;20481;-70
2022/06/27 06:48:13;;;;;;;27.97;23.77;;;;;;;19.14;88.30;100147.44;5105955;28;20444;-71
2022/06/27 06:50:41;;;;;;;32.13;27.90;;;;;;;18.92;89.21;100146.66;5098991;28;20467;-72
2022/06/27 06:53:08;;;;;;;29.60;26.40;;;;;;;19.42;88.21;100144.66;5100474;28;20473;-72
2022/06/27 06:55:34;;;;;;;29.93;26.70;;;;;;;19.51;87.04;100142.63;5098146;28;21068;-71
2022/06/27 06:58:01;;;;;;;28.40;24.93;;;;;;;19.60;86.50;100151.44;5099143;28;20459;-71
2022/06/27 07:00:28;;;;;;;30.47;25.90;;;;;;;19.54;86.69;100167.47;5099153;28;20467;-71
2022/06/27 07:02:58;;;;;;;27.93;24.97;;;;;;;19.74;85.65;100159.47;5097646;28;20489;-73
2022/06/27 07:05:25;;;;;;;30.20;26.33;;;;;;;19.72;85.55;100168.78;5098608;28;20490;-71
2022/06/27 07:07:52;;;;;;;34.83;26.53;;;;;;;19.71;86.26;100170.66;5098272;28;20446;-72
2022/06/27 07:10:19;;;;;;;30.60;24.67;;;;;;;19.84;85.58;100174.50;5097389;28;20446;-71
2022/06/27 07:12:46;;;;;;;34.10;26.00;;;;;;;19.78;85.07;100164.47;5097859;28;20858;-71
2022/06/27 07:15:14;;;;;;;29.10;25.50;;;;;;;19.83;85.08;100165.53;5099111;28;20455;-72
2022/06/27 07:17:43;;;;;;;29.97;26.60;;;;;;;20.00;84.88;100176.88;5098442;28;20444;-72
2022/06/27 07:20:13;;;;;;;30.90;26.67;;;;;;;19.86;84.93;100181.41;5098527;28;20431;-70
2022/06/27 07:22:40;;;;;;;30.13;25.93;;;;;;;19.99;84.84;100190.63;5098648;28;20453;-70
2022/06/27 07:25:09;;;;;;;29.63;25.67;;;;;;;19.94;84.65;100196.66;5097047;28;20890;-70
2022/06/27 07:27:37;;;;;;;31.07;25.97;;;;;;;19.98;84.36;100197.94;5098819;28;20542;-71
2022/06/27 07:30:05;;;;;;;30.23;26.67;;;;;;;19.96;84.86;100191.88;5098694;28;20419;-71
2022/06/27 07:32:32;;;;;;;29.47;26.37;;;;;;;20.12;84.82;100191.50;5098084;28;20431;-70
2022/06/27 07:35:00;;;;;;;37.63;29.37;;;;;;;20.19;84.39;100199.69;5099060;28;20506;-70
2022/06/27 07:37:29;;;;;;;33.60;26.40;;;;;;;20.26;84.67;100199.69;5117973;28;20489;-72
2022/06/27 07:39:55;;;;;;;29.93;25.93;;;;;;;20.35;84.00;100200.34;5118749;28;20438;-70
2022/06/27 07:42:22;;;;;;;34.40;25.60;;;;;;;20.15;84.29;100205.72;5119023;28;20458;-71
2022/06/27 07:44:49;;;;;;;31.77;27.20;;;;;;;20.31;84.22;100205.31;5119570;28;20478;-70
2022/06/27 07:47:16;;;;;;;29.23;26.13;;;;;;;20.16;84.41;100204.69;5117365;28;20493;-71
2022/06/27 07:49:43;;;;;;;31.00;26.20;;;;;;;20.07;84.67;100212.19;5119188;28;20963;-71
2022/06/27 07:52:10;;;;;;;31.77;26.90;;;;;;;19.77;86.49;100211.63;5118821;28;20569;-71
2022/06/27 07:54:38;;;;;;;34.23;27.80;;;;;;;19.63;86.90;100216.94;5118281;28;20451;-71
2022/06/27 07:57:06;;;;;;;30.27;26.97;;;;;;;20.08;85.86;100205.69;5118150;28;20470;-70
2022/06/27 07:59:34;;;;;;;32.30;25.80;;;;;;;20.05;84.93;100201.53;5116524;28;20456;-72
2022/06/27 08:02:01;;;;;;;28.77;25.63;;;;;;;20.35;84.14;100192.19;5092663;28;20485;-71
2022/06/27 08:04:28;;;;;;;35.17;27.27;;;;;;;20.49;83.40;100178.41;5098897;28;20524;-72
2022/06/27 08:06:55;;;;;;;29.10;24.67;;;;;;;20.63;82.37;100182.00;5113381;28;20470;-71
2022/06/27 08:09:22;;;;;;;31.27;23.77;;;;;;;20.70;81.92;100179.28;5117005;28;21160;-71
2022/06/27 08:11:51;;;;;;;31.20;25.50;;;;;;;20.84;81.04;100180.13;5102985;28;20475;-72
2022/06/27 08:14:17;;;;;;;29.07;25.90;;;;;;;20.78;81.07;100175.53;5098932;28;20443;-71
2022/06/27 08:16:46;;;;;;;28.87;25.43;;;;;;;20.70;80.97;100176.59;5096882;28;21009;-71
2022/06/27 08:19:14;;;;;;;31.70;28.37;;;;;;;19.90;83.62;100176.41;5093755;28;20943;-71
2022/06/27 08:21:43;;;;;;;34.27;26.23;;;;;;;20.26;83.18;100189.66;5111350;28;20522;-72
2022/06/27 08:24:11;;;;;;;31.87;26.17;;;;;;;20.49;81.15;100183.84;5117480;28;20461;-70
2022/06/27 08:26:38;;;;;;;32.07;24.00;;;;;;;20.77;79.71;100180.13;5105506;28;20491;-70
2022/06/27 08:29:07;;;;;;;30.23;23.80;;;;;;;20.89;78.59;100172.19;5098820;28;20904;-72
2022/06/27 08:31:34;;;;;;;30.97;25.77;;;;;;;20.85;78.36;100168.22;5096625;28;20471;-70
2022/06/27 08:34:02;;;;;;;27.83;24.10;;;;;;;20.84;79.13;100177.41;5098209;28;20463;-71
2022/06/27 08:36:30;;;;;;;28.27;22.70;;;;;;;21.29;77.97;100176.72;5097075;28;20475;-71
2022/06/27 08:38:57;;;;;;;30.37;24.00;;;;;;;21.32;78.60;100162.69;5097188;28;20481;-72
2022/06/27 08:41:24;;;;;;;27.77;23.50;;;;;;;20.96;79.51;100158.59;5099970;28;20587;-70
2022/06/27 08:43:55;;;;;;;30.50;23.97;;;;;;;20.93;79.98;100159.84;5101716;28;20477;-71
2022/06/27 08:46:23;;;;;;;26.33;23.10;;;;;;;21.32;78.57;100154.53;5089081;28;20476;-70
2022/06/27 08:48:50;;;;;;;28.70;23.47;;;;;;;21.40;77.88;100157.03;5082135;28;20501;-71
2022/06/27 08:51:17;;;;;;;24.60;21.90;;;;;;;21.62;76.91;100163.06;5081184;28;20482;-70
2022/06/27 08:53:44;;;;;;;23.93;21.37;;;;;;;21.45;76.96;100165.38;5080301;28;20440;-72
2022/06/27 08:56:12;;;;;;;24.93;21.77;;;;;;;21.36;78.71;100172.94;5081769;28;20480;-70
2022/06/27 08:58:39;;;;;;;25.63;21.80;;;;;;;21.77;77.78;100182.66;5081317;28;20520;-72
2022/06/27 09:01:07;;;;;;;25.00;21.80;;;;;;;22.48;75.25;100185.41;5080265;28;20502;-70
2022/06/27 09:03:35;;;;;;;27.13;22.53;;;;;;;22.18;75.50;100186.84;5081290;28;20602;-71
2022/06/27 09:06:04;;;;;;;23.33;20.87;;;;;;;22.47;74.00;100187.31;5080819;28;20475;-70
2022/06/27 09:08:33;;;;;;;30.30;21.20;;;;;;;22.41;73.24;100195.53;5079648;28;20452;-70
2022/06/27 09:11:00;;;;;;;24.77;22.20;;;;;;;22.46;74.30;100199.25;5080802;28;20479;-72
2022/06/27 09:13:29;;;;;;;26.87;23.97;;;;;;;22.29;74.64;100198.97;5079765;28;20455;-72
2022/06/27 09:15:58;;;;;;;25.07;22.30;;;;;;;22.40;75.26;100200.16;5079811;28;20480;-73
2022/06/27 09:18:27;;;;;;;26.70;21.83;;;;;;;22.07;74.83;100212.03;5081429;28;20440;-71
2022/06/27 09:20:59;;;;;;;28.37;21.80;;;;;;;21.84;75.82;100212.56;5080126;28;20904;-69
2022/06/27 09:23:35;;;;;;;24.23;21.63;;;;;;;21.42;77.31;100215.59;5079938;28;20460;-73
2022/06/27 09:26:04;;;;;;;24.87;21.53;;;;;;;21.47;77.34;100238.63;5066150;28;20475;-71
2022/06/27 09:28:50;;;;;;;27.27;22.03;;;;;;;21.15;79.08;100236.56;5080914;28;20474;-69
2022/06/27 09:31:31;;;;;;;24.40;21.90;;;;;;;20.98;79.63;100225.28;5079168;28;20546;-71
2022/06/27 09:34:23;;;;;;;25.43;22.73;;;;;;;21.27;78.84;100233.22;5065561;28;20863;-71
2022/06/27 09:36:55;;;;;;;23.83;21.27;;;;;;;21.73;77.14;100230.38;5066385;28;20500;-71
2022/06/27 09:39:24;;;;;;;28.10;21.97;;;;;;;21.65;78.13;100225.22;5080407;28;20511;-71
2022/06/27 09:41:58;;;;;;;27.70;22.90;;;;;;;21.77;76.57;100225.38;5078995;28;20476;-70
2022/06/27 09:44:28;;;;;;;24.97;22.00;;;;;;;21.99;75.51;100220.44;5080189;28;20525;-70
2022/06/27 09:47:01;;;;;;;31.93;22.87;;;;;;;21.86;77.25;100226.81;5079788;28;20475;-71
2022/06/27 09:49:31;;;;;;;25.10;21.90;;;;;;;21.95;76.27;100232.84;5081278;28;20483;-71
2022/06/27 09:52:01;;;;;;;25.67;22.97;;;;;;;21.60;78.05;100236.72;5079983;28;20480;-69
2022/06/27 09:54:29;;;;;;;25.00;22.03;;;;;;;21.21;79.01;100237.59;5081255;28;20482;-70
2022/06/27 09:56:57;;;;;;;30.60;25.13;;;;;;;21.06;79.96;100240.56;5079754;28;20610;-69
2022/06/27 09:59:24;;;;;;;29.00;25.90;;;;;;;20.98;80.34;100243.47;5079967;28;20475;-69
2022/06/27 10:01:51;;;;;;;28.00;24.70;;;;;;;21.10;81.26;100243.69;5080111;28;20947;-70
2022/06/27 10:04:19;;;;;;;31.23;25.30;;;;;;;21.32;79.79;100246.97;5080894;28;20878;-71
2022/06/27 10:06:46;;;;;;;27.70;24.70;;;;;;;21.56;78.83;100238.19;5079505;28;21017;-70
2022/06/27 10:09:15;;;;;;;31.07;23.20;;;;;;;21.80;77.99;100244.84;5079241;28;20444;-70
2022/06/27 10:11:41;;;;;;;28.17;23.70;;;;;;;21.76;77.92;100237.31;5092960;28;20474;-70
2022/06/27 10:14:16;;;;;;;29.40;24.20;;;;;;;21.74;77.27;100248.41;5100324;28;20443;-71
2022/06/27 10:16:54;;;;;;;26.63;23.73;;;;;;;21.79;78.19;100245.03;5098339;28;20535;-69
2022/06/27 10:19:21;;;;;;;28.77;24.20;;;;;;;21.83;77.17;100229.94;5098081;28;20443;-69
2022/06/27 10:21:50;;;;;;;26.90;23.20;;;;;;;21.76;77.50;100235.41;5098751;28;20500;-69
2022/06/27 10:24:34;;;;;;;28.57;23.77;;;;;;;21.75;77.79;100247.38;5098286;28;21035;-70
2022/06/27 10:27:03;;;;;;;30.03;24.30;;;;;;;21.79;77.66;100245.03;5098384;28;20561;-70
2022/06/27 10:29:45;;;;;;;28.43;25.40;;;;;;;21.93;77.71;100245.84;5099056;28;20837;-70
2022/06/27 10:32:56;;;;;;;28.07;25.00;;;;;;;21.63;78.58;100247.19;5099313;28;20505;-69
2022/06/27 10:35:24;;;;;;;25.63;22.77;;;;;;;21.80;78.17;100247.56;5094626;28;20571;-71
2022/06/27 10:37:50;;;;;;;27.70;24.87;;;;;;;21.92;77.49;100246.88;5116783;28;20446;-70
2022/06/27 10:40:55;;;;;;;28.03;24.10;;;;;;;21.85;78.24;100248.78;5099790;28;20427;-70
2022/06/27 10:43:47;;;;;;;32.63;25.20;;;;;;;21.47;79.09;100254.94;5099241;28;20809;-71
2022/06/27 10:46:53;;;;;;;30.27;26.10;;;;;;;21.35;79.21;100255.59;5098292;28;20483;-69
2022/06/27 10:49:28;;;;;;;34.37;28.17;;;;;;;20.83;81.72;100260.81;5099944;28;20423;-71
2022/06/27 10:52:24;;;;;;;37.70;28.63;;;;;;;20.51;83.01;100257.78;5116887;28;20473;-71
2022/06/27 10:54:53;;;;;;;33.90;29.00;;;;;;;20.93;81.63;100260.38;5120526;28;20494;-67
2022/06/27 10:57:44;;;;;;;40.67;29.27;;;;;;;20.61;82.51;100271.00;5119787;28;20461;-70
2022/06/27 11:00:13;;;;;;;39.50;30.70;;;;;;;20.64;82.56;100267.91;5109616;28;20475;-70
2022/06/27 11:02:40;;;;;;;42.33;30.90;;;;;;;20.87;81.68;100261.25;5094916;28;20471;-71
2022/06/27 11:05:07;;;;;;;40.20;30.10;;;;;;;21.12;80.92;100264.16;5094031;28;21039;-71
2022/06/27 11:07:34;;;;;;;37.80;30.40;;;;;;;20.77;81.98;100268.97;5097591;28;20851;-71
2022/06/27 11:10:00;;;;;;;37.37;32.50;;;;;;;20.85;82.27;100268.78;5100474;28;20794;-71
2022/06/27 11:12:33;;;;;;;39.53;34.57;;;;;;;20.95;81.17;100260.19;5098928;28;20481;-70
2022/06/27 11:15:02;;;;;;;43.50;36.30;;;;;;;20.26;83.12;100262.16;5100123;28;20546;-70
2022/06/27 11:17:37;;;;;;;44.23;37.47;;;;;;;20.38;83.04;100263.22;5099794;28;21069;-70
2022/06/27 11:20:18;;;;;;;43.40;35.27;;;;;;;20.63;82.08;100265.38;5099680;28;20471;-71